createdAt,value
2022-12-19T00:01:09.157Z,-2.67
2022-12-19T00:04:15.625Z,-2.61
2022-12-19T00:07:20.628Z,-2.55
2022-12-19T00:10:24.374Z,-2.56
2022-12-19T00:13:30.069Z,-2.52
2022-12-19T00:16:37.316Z,-2.52
2022-12-19T00:19:41.229Z,-2.47
2022-12-19T00:22:46.217Z,-2.42
2022-12-19T00:25:49.872Z,-2.39
2022-12-19T00:28:57.063Z,-2.37
2022-12-19T00:32:00.787Z,-2.32
2022-12-19T00:35:04.502Z,-2.33
2022-12-19T00:38:09.670Z,-2.34
2022-12-19T00:41:15.586Z,-2.23
2022-12-19T00:44:19.156Z,-2.10
2022-12-19T00:47:22.740Z,-2.19
2022-12-19T00:50:26.399Z,-2.10
2022-12-19T00:53:31.762Z,-2.01
2022-12-19T00:56:38.364Z,-2.04
2022-12-19T00:59:43.518Z,-1.94
2022-12-19T01:02:47.465Z,-1.91
2022-12-19T01:05:53.094Z,-1.83
2022-12-19T01:08:58.693Z,-1.77
2022-12-19T01:12:23.946Z,-1.79
2022-12-19T01:15:28.510Z,-1.75
2022-12-19T01:18:32.184Z,-1.74
2022-12-19T01:21:35.848Z,-1.76
2022-12-19T01:24:40.962Z,-1.71
2022-12-19T01:27:44.612Z,-1.69
2022-12-19T01:30:48.965Z,-1.77
2022-12-19T01:33:52.753Z,-1.79
2022-12-19T01:36:58.142Z,-1.77
2022-12-19T01:40:03.183Z,-1.76
2022-12-19T01:43:07.791Z,-1.68
2022-12-19T01:46:16.967Z,-1.77
2022-12-19T01:49:30.360Z,-1.70
2022-12-19T01:52:34.863Z,-1.72
2022-12-19T01:55:42.778Z,-1.79
2022-12-19T01:58:47.787Z,-1.79
2022-12-19T02:02:01.635Z,-1.75
2022-12-19T02:05:06.588Z,-1.79
2022-12-19T02:08:10.906Z,-1.74
2022-12-19T02:11:16.153Z,-1.74
2022-12-19T02:14:20.080Z,-1.71
2022-12-19T02:17:42.219Z,-1.70
2022-12-19T02:21:16.681Z,-1.68
2022-12-19T02:25:09.959Z,-1.68
2022-12-19T02:29:08.112Z,-1.64
2022-12-19T02:32:21.306Z,-1.62
2022-12-19T02:35:37.346Z,-1.59
2022-12-19T02:38:51.884Z,-1.57
2022-12-19T02:41:59.522Z,-1.44
2022-12-19T02:45:07.761Z,-1.46
2022-12-19T02:48:18.890Z,-1.47
2022-12-19T02:51:23.097Z,-1.42
2022-12-19T02:54:27.163Z,-1.44
2022-12-19T02:57:39.527Z,-1.42
2022-12-19T03:00:56.164Z,-1.36
2022-12-19T03:04:16.580Z,-1.30
2022-12-19T03:07:34.794Z,-1.28
2022-12-19T03:10:45.677Z,-1.35
2022-12-19T03:13:58.116Z,-1.32
2022-12-19T03:17:07.124Z,-1.30
2022-12-19T03:20:27.259Z,-1.29
2022-12-19T03:23:32.599Z,-1.25
2022-12-19T03:26:45.036Z,-1.23
2022-12-19T03:29:56.156Z,-1.16
2022-12-19T03:33:00.787Z,-1.10
2022-12-19T03:36:12.414Z,-1.09
2022-12-19T03:39:19.310Z,-1.10
2022-12-19T03:42:45.973Z,-1.12
2022-12-19T03:45:58.343Z,-1.10
2022-12-19T03:49:02.120Z,-1.08
2022-12-19T03:52:23.947Z,-1.09
2022-12-19T03:55:38.131Z,-1.04
2022-12-19T03:58:50.484Z,-1.01
2022-12-19T04:01:56.375Z,-1.00
2022-12-19T04:05:10.208Z,-0.95
2022-12-19T04:08:16.741Z,-0.91
2022-12-19T04:11:22.377Z,-0.92
2022-12-19T04:14:32.115Z,-0.87
2022-12-19T04:17:42.202Z,-0.86
2022-12-19T04:20:56.641Z,-0.79
2022-12-19T04:24:10.701Z,-0.77
2022-12-19T04:27:15.696Z,-0.75
2022-12-19T04:30:20.855Z,-0.71
2022-12-19T04:33:24.519Z,-0.65
2022-12-19T04:36:28.482Z,-0.64
2022-12-19T04:39:34.027Z,-0.67
2022-12-19T04:42:38.050Z,-0.64
2022-12-19T04:45:43.158Z,-0.66
2022-12-19T04:48:46.851Z,-0.60
2022-12-19T04:51:50.734Z,-0.63
2022-12-19T04:54:55.831Z,-0.58
2022-12-19T04:58:06.833Z,-0.61
2022-12-19T05:01:11.118Z,-0.49
2022-12-19T05:04:14.800Z,-0.52
2022-12-19T05:07:21.505Z,-0.47
2022-12-19T05:10:26.682Z,-0.47
2022-12-19T05:13:30.619Z,-0.48
2022-12-19T05:16:34.466Z,-0.47
2022-12-19T05:19:38.150Z,-0.52
2022-12-19T05:22:41.858Z,-0.45
2022-12-19T05:25:47.186Z,-0.49
2022-12-19T05:29:00.985Z,-0.39
2022-12-19T05:32:04.652Z,-0.40
2022-12-19T05:35:09.110Z,-0.33
2022-12-19T05:38:12.856Z,-0.38
2022-12-19T05:41:21.057Z,-0.39
2022-12-19T05:44:24.772Z,-0.40
2022-12-19T05:47:28.784Z,-0.33
2022-12-19T05:50:32.588Z,-0.28
2022-12-19T05:53:37.844Z,-0.32
2022-12-19T05:56:43.936Z,-0.24
2022-12-19T05:59:47.593Z,-0.23
2022-12-19T06:02:51.301Z,-0.22
2022-12-19T06:05:55.073Z,-0.24
2022-12-19T06:09:00.647Z,-0.22
2022-12-19T06:12:06.215Z,-0.14
2022-12-19T06:15:11.427Z,-0.11
2022-12-19T06:18:14.945Z,-0.08
2022-12-19T06:21:21.861Z,-0.07
2022-12-19T06:24:26.818Z,-0.11
2022-12-19T06:27:31.793Z,-0.06
2022-12-19T06:30:35.523Z,-0.06
2022-12-19T06:33:39.235Z,-0.07
2022-12-19T06:36:43.159Z,-0.05
2022-12-19T06:39:47.371Z,-0.09
2022-12-19T06:42:51.670Z,-0.05
2022-12-19T06:45:55.408Z,-0.05
2022-12-19T06:48:59.323Z,0.04
2022-12-19T06:52:09.014Z,0.01
2022-12-19T06:55:12.968Z,0.08
2022-12-19T06:58:22.724Z,0.05
2022-12-19T07:01:50.274Z,0.08
2022-12-19T07:05:03.023Z,0.08
2022-12-19T07:08:07.469Z,0.07
2022-12-19T07:11:11.917Z,0.06
2022-12-19T07:14:16.880Z,0.09
2022-12-19T07:17:21.854Z,0.07
2022-12-19T07:20:25.537Z,0.22
2022-12-19T07:23:30.545Z,0.24
2022-12-19T07:26:34.652Z,0.22
2022-12-19T07:29:40.098Z,0.23
2022-12-19T07:32:43.732Z,0.29
2022-12-19T07:35:47.335Z,0.27
2022-12-19T07:38:51.052Z,0.29
2022-12-19T07:41:54.791Z,0.33
2022-12-19T07:44:59.764Z,0.33
2022-12-19T07:48:04.715Z,0.30
2022-12-19T07:51:08.660Z,0.37
2022-12-19T07:54:12.462Z,0.39
2022-12-19T07:57:16.099Z,0.44
2022-12-19T08:00:22.038Z,0.49
2022-12-19T08:03:26.018Z,0.44
2022-12-19T08:06:29.818Z,0.48
2022-12-19T08:09:34.134Z,0.50
2022-12-19T08:12:37.727Z,0.51
2022-12-19T08:15:42.741Z,0.47
2022-12-19T08:18:48.006Z,0.53
2022-12-19T08:21:51.802Z,0.60
2022-12-19T08:24:55.448Z,0.55
2022-12-19T08:27:59.076Z,0.60
2022-12-19T08:31:09.193Z,0.73
2022-12-19T08:34:13.163Z,0.67
2022-12-19T08:37:17.070Z,0.81
2022-12-19T08:40:22.038Z,0.77
2022-12-19T08:43:27.631Z,0.80
2022-12-19T08:46:33.218Z,0.77
2022-12-19T08:49:36.994Z,0.83
2022-12-19T08:52:40.724Z,0.84
2022-12-19T08:55:44.593Z,0.84
2022-12-19T08:58:48.703Z,0.87
2022-12-19T09:01:53.829Z,1.01
2022-12-19T09:05:58.655Z,1.01
2022-12-19T09:08:21.131Z,1.08
2022-12-19T09:11:26.141Z,0.98
2022-12-19T09:14:34.287Z,1.03
2022-12-19T09:17:39.473Z,1.00
2022-12-19T09:20:43.329Z,1.11
2022-12-19T09:23:50.769Z,1.13
2022-12-19T09:26:54.387Z,1.15
2022-12-19T09:29:57.962Z,1.12
2022-12-19T09:33:03.051Z,1.36
2022-12-19T09:36:09.926Z,1.63
2022-12-19T09:39:14.025Z,1.49
2022-12-19T09:43:01.679Z,1.53
2022-12-19T09:46:17.781Z,1.51
2022-12-19T09:49:26.386Z,1.59
2022-12-19T09:52:37.139Z,1.41
2022-12-19T09:55:43.975Z,1.50
2022-12-19T09:58:54.917Z,1.51
2022-12-19T10:02:22.123Z,1.57
2022-12-19T10:06:53.229Z,1.54
2022-12-19T10:10:52.871Z,1.61
2022-12-19T10:13:12.898Z,1.59
2022-12-19T10:16:28.265Z,1.60
2022-12-19T10:19:45.774Z,1.63
2022-12-19T10:23:29.160Z,1.76
2022-12-19T10:26:46.394Z,1.81
2022-12-19T10:30:04.872Z,1.73
2022-12-19T10:33:22.766Z,1.82
2022-12-19T10:36:56.013Z,1.77
2022-12-19T10:40:14.664Z,1.84
2022-12-19T10:43:47.784Z,1.88
2022-12-19T10:46:53.256Z,1.95
2022-12-19T10:49:56.957Z,2.07
2022-12-19T10:53:11.481Z,2.09
2022-12-19T10:56:29.269Z,2.01
2022-12-19T10:59:37.100Z,2.10
2022-12-19T11:02:45.646Z,2.21
2022-12-19T11:05:58.002Z,2.21
2022-12-19T11:09:22.988Z,2.26
2022-12-19T11:16:04.344Z,2.32
2022-12-19T11:22:04.822Z,2.29
2022-12-19T11:29:17.531Z,2.40
2022-12-19T11:29:31.089Z,2.50
2022-12-19T11:30:21.353Z,2.49
2022-12-19T11:33:48.616Z,2.58
2022-12-19T11:36:59.593Z,2.58
2022-12-19T11:40:11.934Z,2.64
2022-12-19T11:43:45.127Z,2.71
2022-12-19T11:47:00.005Z,2.78
2022-12-19T11:50:15.864Z,2.78
2022-12-19T11:53:29.241Z,2.85
2022-12-19T11:56:33.841Z,3.07
2022-12-19T11:59:40.965Z,3.00
2022-12-19T12:03:19.931Z,2.99
2022-12-19T12:06:31.433Z,3.06
2022-12-19T12:11:58.586Z,3.06
2022-12-19T12:24:05.063Z,3.20
2022-12-19T12:29:04.078Z,3.43
2022-12-19T12:31:11.037Z,3.53
2022-12-19T12:32:02.056Z,3.84
2022-12-19T12:32:04.831Z,3.90
2022-12-19T12:35:54.025Z,3.80
2022-12-19T12:39:18.193Z,3.81
2022-12-19T12:42:49.772Z,3.86
2022-12-19T12:45:53.872Z,3.90
2022-12-19T12:49:03.584Z,4.10
2022-12-19T12:52:15.549Z,4.00
2022-12-19T12:55:29.935Z,4.14
2022-12-19T12:59:07.290Z,4.10
2022-12-19T13:02:22.220Z,4.15
2022-12-19T13:05:54.576Z,4.17
2022-12-19T13:09:06.915Z,4.20
2022-12-19T13:12:40.131Z,4.20
2022-12-19T13:15:45.837Z,4.38
2022-12-19T13:19:20.967Z,4.16
2022-12-19T13:22:42.890Z,4.21
2022-12-19T13:25:54.684Z,4.17
2022-12-19T13:29:28.964Z,4.21
2022-12-19T13:33:17.014Z,4.17
2022-12-19T13:39:54.401Z,4.25
2022-12-19T13:41:23.126Z,4.23
2022-12-19T13:44:27.187Z,4.25
2022-12-19T13:47:36.669Z,4.40
2022-12-19T13:50:42.989Z,4.40
2022-12-19T13:53:46.878Z,4.37
2022-12-19T13:56:53.181Z,4.39
2022-12-19T14:00:03.946Z,4.56
2022-12-19T14:03:18.500Z,4.49
2022-12-19T14:06:26.353Z,4.77
2022-12-19T14:11:28.109Z,4.75
2022-12-19T14:13:57.122Z,4.75
2022-12-19T14:16:48.281Z,4.89
2022-12-19T14:19:55.095Z,4.83
2022-12-19T14:23:25.529Z,5.06
2022-12-19T14:28:20.448Z,4.86
2022-12-19T14:30:28.859Z,4.94
2022-12-19T14:33:58.500Z,4.91
2022-12-19T14:37:05.539Z,5.06
2022-12-19T14:40:23.570Z,5.05
2022-12-19T14:43:56.293Z,5.04
2022-12-19T14:54:08.628Z,5.04
2022-12-19T14:54:26.177Z,5.25
2022-12-19T14:58:51.320Z,5.19
2022-12-19T15:01:25.085Z,5.17
2022-12-19T15:04:50.295Z,5.17
2022-12-19T15:08:01.367Z,5.09
2022-12-19T15:11:41.407Z,5.07
2022-12-19T15:14:58.980Z,5.16
2022-12-19T15:18:19.926Z,5.25
2022-12-19T15:21:25.653Z,5.43
2022-12-19T15:24:30.300Z,5.29
2022-12-19T15:27:35.208Z,5.20
2022-12-19T15:30:42.298Z,5.23
2022-12-19T15:34:07.206Z,5.32
2022-12-19T15:37:15.324Z,5.31
2022-12-19T15:40:19.989Z,5.27
2022-12-19T15:44:01.703Z,5.40
2022-12-19T15:46:50.479Z,5.35
2022-12-19T15:49:54.186Z,5.28
2022-12-19T15:53:02.364Z,5.64
2022-12-19T15:56:16.083Z,5.42
2022-12-19T15:59:36.387Z,5.33
2022-12-19T16:03:23.399Z,5.32
2022-12-19T16:06:06.999Z,5.47
2022-12-19T16:09:23.754Z,5.34
2022-12-19T16:12:39.471Z,5.60
2022-12-19T16:15:43.441Z,5.40
2022-12-19T16:18:47.705Z,5.47
2022-12-19T16:21:51.924Z,5.41
2022-12-19T16:24:57.397Z,5.49
2022-12-19T16:28:03.227Z,5.35
2022-12-19T16:31:17.740Z,5.45
2022-12-19T16:34:25.309Z,5.41
2022-12-19T16:37:32.348Z,5.37
2022-12-19T16:40:37.987Z,5.36
2022-12-19T16:43:45.037Z,5.30
2022-12-19T16:46:51.336Z,5.28
2022-12-19T16:49:55.374Z,5.36
2022-12-19T16:52:59.665Z,5.27
2022-12-19T16:56:06.489Z,5.25
2022-12-19T16:59:19.014Z,5.26
2022-12-19T17:02:43.445Z,5.20
2022-12-19T17:05:47.391Z,5.33
2022-12-19T17:08:51.335Z,5.20
2022-12-19T17:12:00.794Z,5.25
2022-12-19T17:15:07.861Z,5.26
2022-12-19T17:18:17.496Z,5.25
2022-12-19T17:21:23.994Z,5.26
2022-12-19T17:24:27.745Z,5.22
2022-12-19T17:27:33.528Z,5.14
2022-12-19T17:30:38.911Z,5.16
2022-12-19T17:33:43.277Z,5.13
2022-12-19T17:36:47.426Z,5.14
2022-12-19T17:39:51.244Z,5.13
2022-12-19T17:42:57.510Z,5.14
2022-12-19T17:46:01.410Z,5.09
2022-12-19T17:49:05.647Z,5.15
2022-12-19T17:52:16.192Z,5.07
2022-12-19T17:55:24.079Z,5.08
2022-12-19T17:58:29.912Z,5.12
2022-12-19T18:01:36.619Z,5.12
2022-12-19T18:04:40.325Z,5.08
2022-12-19T18:07:44.051Z,5.04
2022-12-19T18:10:47.641Z,5.07
2022-12-19T18:13:54.582Z,4.98
2022-12-19T18:16:58.602Z,4.98
2022-12-19T18:20:03.460Z,5.04
2022-12-19T18:23:17.911Z,5.05
2022-12-19T18:26:21.867Z,5.01
2022-12-19T18:29:26.871Z,5.03
2022-12-19T18:32:30.847Z,5.12
2022-12-19T18:35:38.365Z,5.06
2022-12-19T18:38:42.078Z,5.06
2022-12-19T18:41:45.772Z,5.14
2022-12-19T18:44:51.097Z,5.09
2022-12-19T18:47:59.911Z,5.12
2022-12-19T18:51:05.332Z,5.22
2022-12-19T18:54:15.209Z,5.12
2022-12-19T18:57:19.573Z,5.28
2022-12-19T19:00:28.004Z,5.28
2022-12-19T19:03:36.118Z,5.33
2022-12-19T19:06:46.434Z,5.29
2022-12-19T19:09:54.055Z,5.28
2022-12-19T19:13:02.673Z,5.35
2022-12-19T19:16:20.003Z,5.31
2022-12-19T19:19:23.895Z,5.20
2022-12-19T19:22:28.232Z,5.14
2022-12-19T19:25:32.130Z,5.12
2022-12-19T19:28:38.495Z,5.05
2022-12-19T19:31:48.586Z,4.94
2022-12-19T19:34:55.685Z,4.89
2022-12-19T19:38:07.535Z,4.90
2022-12-19T19:41:11.245Z,4.91
2022-12-19T19:44:14.981Z,4.85
2022-12-19T19:47:27.141Z,5.06
2022-12-19T19:50:31.625Z,5.00
2022-12-19T19:53:36.130Z,5.10
2022-12-19T19:56:40.151Z,5.09
2022-12-19T19:59:43.693Z,5.12
2022-12-19T20:02:49.597Z,5.09
2022-12-19T20:06:00.915Z,4.99
2022-12-19T20:09:05.196Z,5.03
2022-12-19T20:12:08.946Z,5.03
2022-12-19T20:15:13.183Z,5.02
2022-12-19T20:18:18.482Z,5.14
2022-12-19T20:21:23.976Z,5.17
2022-12-19T20:24:28.193Z,5.19
2022-12-19T20:27:31.859Z,5.17
2022-12-19T20:30:35.540Z,5.00
2022-12-19T20:33:41.123Z,4.96
2022-12-19T20:36:44.805Z,4.81
2022-12-19T20:39:48.548Z,4.84
2022-12-19T20:42:52.159Z,4.80
2022-12-19T20:46:03.116Z,4.70
2022-12-19T20:49:08.280Z,4.80
2022-12-19T20:52:11.985Z,4.69
2022-12-19T20:55:16.000Z,4.60
2022-12-19T20:58:19.716Z,4.66
2022-12-19T21:01:26.049Z,4.59
2022-12-19T21:04:31.997Z,4.61
2022-12-19T21:07:35.757Z,4.63
2022-12-19T21:10:39.449Z,4.60
2022-12-19T21:13:44.838Z,4.56
2022-12-19T21:16:48.471Z,4.49
2022-12-19T21:19:53.582Z,4.67
2022-12-19T21:22:57.316Z,4.72
2022-12-19T21:26:04.246Z,5.06
2022-12-19T21:29:07.930Z,5.07
2022-12-19T21:32:18.453Z,5.08
2022-12-19T21:35:24.398Z,4.98
2022-12-19T21:38:28.688Z,5.21
2022-12-19T21:41:33.564Z,5.21
2022-12-19T21:44:37.515Z,5.12
2022-12-19T21:47:42.222Z,5.15
2022-12-19T21:50:47.480Z,5.07
2022-12-19T21:53:56.011Z,4.97
2022-12-19T21:56:59.631Z,4.90
2022-12-19T22:00:05.840Z,4.81
2022-12-19T22:03:14.787Z,4.89
2022-12-19T22:06:28.282Z,4.92
2022-12-19T22:09:33.199Z,4.75
2022-12-19T22:12:36.907Z,4.91
2022-12-19T22:15:40.484Z,5.01
2022-12-19T22:18:44.764Z,4.87
2022-12-19T22:21:50.146Z,4.90
2022-12-19T22:24:53.809Z,4.88
2022-12-19T22:27:57.576Z,5.01
2022-12-19T22:31:01.765Z,4.84
2022-12-19T22:34:08.091Z,4.92
2022-12-19T22:37:13.378Z,4.92
2022-12-19T22:40:17.283Z,4.78
2022-12-19T22:43:20.948Z,5.00
2022-12-19T22:46:27.737Z,5.23
2022-12-19T22:49:31.504Z,5.10
2022-12-19T22:52:37.684Z,4.92
2022-12-19T22:55:41.441Z,4.88
2022-12-19T22:58:47.999Z,4.95
2022-12-19T23:01:51.871Z,5.02
2022-12-19T23:04:55.660Z,5.00
2022-12-19T23:08:00.768Z,5.03
2022-12-19T23:11:11.005Z,5.23
2022-12-19T23:14:17.603Z,5.51
2022-12-19T23:17:21.260Z,5.52
2022-12-19T23:20:24.892Z,5.41
2022-12-19T23:23:29.878Z,5.37
2022-12-19T23:26:38.402Z,5.41
2022-12-19T23:29:41.995Z,5.29
2022-12-19T23:32:50.733Z,5.27
2022-12-19T23:35:54.870Z,5.40
2022-12-19T23:38:59.940Z,5.24
2022-12-19T23:42:03.602Z,5.24
2022-12-19T23:45:09.018Z,5.46
2022-12-19T23:48:12.605Z,5.33
2022-12-19T23:51:19.644Z,5.38
2022-12-19T23:54:24.590Z,5.12
2022-12-19T23:57:28.199Z,5.15
